createdAt,value
2023-04-16T00:00:49.793Z,99786.97
2023-04-16T00:05:56.011Z,99782.84
2023-04-16T00:10:59.068Z,99790.38
2023-04-16T00:16:02.074Z,99784.31
2023-04-16T00:21:05.524Z,99795.03
2023-04-16T00:26:09.232Z,99797.88
2023-04-16T00:31:12.277Z,99803.31
2023-04-16T00:36:15.257Z,99807.78
2023-04-16T00:41:18.287Z,99802.66
2023-04-16T00:46:23.869Z,99808.81
2023-04-16T00:51:27.172Z,99815.88
2023-04-16T00:56:31.062Z,99811.72
2023-04-16T01:01:34.043Z,99811.72
2023-04-16T01:06:36.853Z,99809.13
2023-04-16T01:11:39.897Z,99814.22
2023-04-16T01:16:42.879Z,99799.81
2023-04-16T01:21:46.742Z,99808.69
2023-04-16T01:26:49.793Z,99817.28
2023-04-16T01:31:52.829Z,99817.53
2023-04-16T01:36:55.936Z,99813.97
2023-04-16T01:41:58.820Z,99816.59
2023-04-16T01:47:01.833Z,99809.53
2023-04-16T01:52:05.092Z,99827.09
2023-04-16T01:57:08.212Z,99820.44
2023-04-16T02:02:14.852Z,99820.84
2023-04-16T02:07:17.734Z,99821.13
2023-04-16T02:12:20.923Z,99817.25
2023-04-16T02:17:23.911Z,99822.91
2023-04-16T02:22:26.839Z,99821.38
2023-04-16T02:27:30.169Z,99823.31
2023-04-16T02:32:33.292Z,99835.22
2023-04-16T02:37:36.049Z,99828.03
2023-04-16T02:42:38.935Z,99835.38
2023-04-16T02:47:42.018Z,99832.47
2023-04-16T02:52:45.052Z,99829.81
2023-04-16T02:57:48.015Z,99835.38
2023-04-16T03:02:51.245Z,99841.84
2023-04-16T03:07:56.820Z,99844.63
2023-04-16T03:13:00.407Z,99846.00
2023-04-16T03:18:03.716Z,99852.63
2023-04-16T03:23:06.706Z,99843.63
2023-04-16T03:28:09.598Z,99843.16
2023-04-16T03:33:12.541Z,99857.53
2023-04-16T03:38:15.633Z,99867.22
2023-04-16T03:43:18.649Z,99868.03
2023-04-16T03:48:21.521Z,99880.22
2023-04-16T03:53:24.563Z,99885.47
2023-04-16T03:58:27.459Z,99902.06
2023-04-16T04:03:30.760Z,99904.69
2023-04-16T04:08:33.959Z,99911.91
2023-04-16T04:13:36.904Z,99911.06
2023-04-16T04:18:39.937Z,99913.16
2023-04-16T04:23:43.791Z,99913.72
2023-04-16T04:28:47.220Z,99907.69
2023-04-16T04:33:50.145Z,99912.16
2023-04-16T04:38:53.056Z,99905.25
2023-04-16T04:43:55.850Z,99903.50
2023-04-16T04:48:58.829Z,99904.50
2023-04-16T04:54:01.868Z,99910.75
2023-04-16T04:59:04.869Z,99911.19
2023-04-16T05:04:07.893Z,99917.56
2023-04-16T05:09:13.966Z,99931.44
2023-04-16T05:14:17.288Z,99936.97
2023-04-16T05:19:20.607Z,99935.56
2023-04-16T05:24:23.588Z,99937.13
2023-04-16T05:29:26.627Z,99938.78
2023-04-16T05:34:29.600Z,99945.44
2023-04-16T05:39:32.564Z,99940.84
2023-04-16T05:44:35.562Z,99936.25
2023-04-16T05:49:38.476Z,99947.47
2023-04-16T05:54:41.491Z,99951.59
2023-04-16T05:59:44.523Z,99962.41
2023-04-16T06:04:47.478Z,99965.44
2023-04-16T06:09:50.507Z,99973.88
2023-04-16T06:14:53.540Z,99973.53
2023-04-16T06:19:56.490Z,99976.56
2023-04-16T06:24:59.418Z,99977.81
2023-04-16T06:30:02.323Z,99982.34
2023-04-16T06:35:06.345Z,99977.47
2023-04-16T06:40:10.303Z,99987.94
2023-04-16T06:45:13.748Z,99982.06
2023-04-16T06:50:16.815Z,99976.59
2023-04-16T06:55:19.594Z,99976.53
2023-04-16T07:00:22.503Z,99972.69
2023-04-16T07:05:26.221Z,99977.78
2023-04-16T07:10:29.354Z,99962.16
2023-04-16T07:15:32.896Z,99972.47
2023-04-16T07:20:36.366Z,99977.31
2023-04-16T07:25:40.172Z,99977.28
2023-04-16T07:30:43.842Z,99975.41
2023-04-16T07:35:47.460Z,99973.78
2023-04-16T07:40:50.652Z,99978.88
2023-04-16T07:45:53.622Z,99973.59
2023-04-16T07:50:56.950Z,99963.00
2023-04-16T07:56:00.164Z,99952.34
2023-04-16T08:01:03.244Z,99953.53
2023-04-16T08:06:06.787Z,99954.16
2023-04-16T08:11:09.954Z,99962.06
2023-04-16T08:16:12.863Z,99958.59
2023-04-16T08:21:16.033Z,99958.59
2023-04-16T08:26:18.980Z,99949.75
2023-04-16T08:31:22.391Z,99942.31
2023-04-16T08:36:25.745Z,99943.41
2023-04-16T08:41:32.324Z,99948.00
2023-04-16T08:46:38.749Z,99956.09
2023-04-16T08:51:44.452Z,99946.78
2023-04-16T08:56:49.325Z,99958.22
2023-04-16T09:01:57.712Z,99963.78
2023-04-16T09:07:02.436Z,99967.47
2023-04-16T09:12:05.721Z,99966.78
2023-04-16T09:17:09.925Z,99967.75
2023-04-16T09:22:13.100Z,99964.47
2023-04-16T09:27:17.115Z,99967.84
2023-04-16T09:32:27.400Z,99969.13
2023-04-16T09:37:31.176Z,99972.47
2023-04-16T09:42:37.242Z,99978.84
2023-04-16T09:47:45.964Z,99989.72
2023-04-16T09:52:53.564Z,99989.19
2023-04-16T09:58:01.449Z,99987.03
2023-04-16T10:03:07.192Z,99984.56
2023-04-16T10:08:14.675Z,99985.66
2023-04-16T10:13:19.204Z,99985.94
2023-04-16T10:18:23.300Z,99976.69
2023-04-16T10:23:27.216Z,99979.97
2023-04-16T10:28:31.157Z,99972.41
2023-04-16T10:33:37.316Z,99979.66
2023-04-16T10:38:49.830Z,99985.44
2023-04-16T10:43:54.136Z,99978.28
2023-04-16T10:49:12.793Z,99976.28
2023-04-16T10:54:21.387Z,99979.38
2023-04-16T10:59:25.769Z,99967.09
2023-04-16T11:04:34.492Z,99965.97
2023-04-16T11:09:59.957Z,99966.16
2023-04-16T11:15:08.987Z,99949.78
2023-04-16T11:20:28.739Z,99952.69
2023-04-16T11:25:34.043Z,99948.31
2023-04-16T11:30:39.066Z,99942.53
2023-04-16T11:35:43.440Z,99935.97
2023-04-16T11:40:49.928Z,99936.50
2023-04-16T11:46:12.928Z,99923.16
2023-04-16T11:51:24.003Z,99925.03
2023-04-16T11:56:33.231Z,99926.50
2023-04-16T12:01:38.108Z,99929.03
2023-04-16T12:06:41.299Z,99925.75
2023-04-16T12:11:44.596Z,99919.13
2023-04-16T12:16:47.848Z,99913.00
2023-04-16T12:21:51.282Z,99909.69
2023-04-16T12:27:03.242Z,99904.72
2023-04-16T12:32:23.377Z,99909.09
2023-04-16T12:37:26.798Z,99900.75
2023-04-16T12:42:35.656Z,99897.97
2023-04-16T12:47:38.621Z,99891.78
2023-04-16T12:52:41.742Z,99893.75
2023-04-16T12:57:45.056Z,99886.22
2023-04-16T13:02:48.270Z,99876.66
2023-04-16T13:07:51.500Z,99888.09
2023-04-16T13:12:54.448Z,99883.00
2023-04-16T13:17:57.371Z,99875.22
2023-04-16T13:23:01.052Z,99879.28
2023-04-16T13:28:04.012Z,99867.50
2023-04-16T13:33:06.979Z,99862.91
2023-04-16T13:38:10.182Z,99862.22
2023-04-16T13:43:14.052Z,99856.63
2023-04-16T13:48:17.946Z,99857.47
2023-04-16T13:53:22.026Z,99852.69
2023-04-16T13:58:25.288Z,99847.03
2023-04-16T14:03:28.974Z,99845.41
2023-04-16T14:08:32.349Z,99850.84
2023-04-16T14:13:35.363Z,99850.91
2023-04-16T14:18:42.454Z,99835.28
2023-04-16T14:23:45.599Z,99833.63
2023-04-16T14:28:48.599Z,99842.09
2023-04-16T14:33:51.634Z,99829.69
2023-04-16T14:38:54.624Z,99818.19
2023-04-16T14:43:59.298Z,99828.31
2023-04-16T14:49:02.289Z,99824.31
2023-04-16T14:54:05.384Z,99834.72
2023-04-16T14:59:08.436Z,99821.09
2023-04-16T15:04:11.846Z,99822.13
2023-04-16T15:09:14.840Z,99818.22
2023-04-16T15:14:18.410Z,99819.09
2023-04-16T15:19:21.586Z,99819.38
2023-04-16T15:24:26.223Z,99822.81
2023-04-16T15:29:30.434Z,99820.16
2023-04-16T15:34:33.379Z,99833.81
2023-04-16T15:39:36.389Z,99825.56
2023-04-16T15:44:39.406Z,99830.72
2023-04-16T15:49:42.499Z,99825.53
2023-04-16T15:54:45.875Z,99823.66
2023-04-16T15:59:59.583Z,99821.84
2023-04-16T16:05:12.124Z,99824.72
2023-04-16T16:10:15.292Z,99826.78
2023-04-16T16:15:18.343Z,99836.28
2023-04-16T16:20:22.743Z,99835.72
2023-04-16T16:25:25.610Z,99835.78
2023-04-16T16:30:28.353Z,99834.38
2023-04-16T16:35:31.879Z,99830.09
2023-04-16T16:40:34.769Z,99831.72
2023-04-16T16:45:38.448Z,99836.09
2023-04-16T16:50:41.206Z,99840.63
2023-04-16T16:55:44.205Z,99836.50
2023-04-16T17:00:47.160Z,99846.19
2023-04-16T17:05:50.393Z,99842.44
2023-04-16T17:10:53.300Z,99855.09
2023-04-16T17:15:56.255Z,99864.69
2023-04-16T17:20:59.220Z,99859.66
2023-04-16T17:26:03.258Z,99860.13
2023-04-16T17:31:08.525Z,99861.03
2023-04-16T17:36:11.535Z,99865.03
2023-04-16T17:41:14.545Z,99868.34
2023-04-16T17:46:17.577Z,99880.72
2023-04-16T17:51:20.565Z,99884.72
2023-04-16T17:56:23.784Z,99893.22
2023-04-16T18:01:27.605Z,99900.06
2023-04-16T18:06:30.996Z,99905.91
2023-04-16T18:11:34.119Z,99905.00
2023-04-16T18:16:37.073Z,99892.22
2023-04-16T18:21:40.000Z,99884.78
2023-04-16T18:26:45.705Z,99892.16
2023-04-16T18:31:50.740Z,99900.16
2023-04-16T18:36:53.756Z,99904.47
2023-04-16T18:41:57.644Z,99923.13
2023-04-16T18:47:00.694Z,99922.47
2023-04-16T18:52:03.674Z,99905.56
2023-04-16T18:57:06.900Z,99895.91
2023-04-16T19:02:10.088Z,99890.59
2023-04-16T19:07:13.179Z,99889.56
2023-04-16T19:12:16.230Z,99901.25
2023-04-16T19:17:19.208Z,99892.97
2023-04-16T19:22:22.125Z,99889.63
2023-04-16T19:27:28.469Z,99880.59
2023-04-16T19:32:32.037Z,99892.91
2023-04-16T19:37:35.101Z,99892.09
2023-04-16T19:42:38.096Z,99892.81
2023-04-16T19:47:41.187Z,99894.94
2023-04-16T19:52:44.308Z,99886.41
2023-04-16T19:57:48.387Z,99889.06
2023-04-16T20:02:51.480Z,99886.94
2023-04-16T20:07:55.897Z,99885.84
2023-04-16T20:13:00.425Z,99892.81
2023-04-16T20:18:04.120Z,99889.84
2023-04-16T20:23:07.076Z,99882.13
2023-04-16T20:28:10.261Z,99877.69
2023-04-16T20:33:13.173Z,99891.28
2023-04-16T20:38:16.279Z,99892.09
2023-04-16T20:43:19.320Z,99876.03
2023-04-16T20:48:22.372Z,99883.78
2023-04-16T20:53:25.409Z,99883.88
2023-04-16T20:58:28.975Z,99886.91
2023-04-16T21:03:32.138Z,99870.22
2023-04-16T21:08:35.515Z,99859.09
2023-04-16T21:13:38.451Z,99862.78
2023-04-16T21:18:41.614Z,99858.19
2023-04-16T21:23:44.622Z,99888.25
2023-04-16T21:28:48.393Z,99882.00
2023-04-16T21:33:51.412Z,99865.47
2023-04-16T21:38:54.519Z,99871.19
2023-04-16T21:43:57.489Z,99856.47
2023-04-16T21:49:00.811Z,99864.56
2023-04-16T21:54:03.865Z,99857.84
2023-04-16T21:59:06.727Z,99857.66
2023-04-16T22:04:10.044Z,99851.34
2023-04-16T22:09:13.352Z,99854.63
2023-04-16T22:14:17.797Z,99849.50
2023-04-16T22:19:21.729Z,99842.97
2023-04-16T22:24:24.794Z,99834.63
2023-04-16T22:29:27.570Z,99837.91
2023-04-16T22:34:30.607Z,99837.34
2023-04-16T22:39:34.205Z,99829.06
2023-04-16T22:44:37.240Z,99826.28
2023-04-16T22:49:40.165Z,99826.72
2023-04-16T22:54:43.096Z,99828.22
2023-04-16T22:59:46.326Z,99824.72
2023-04-16T23:04:49.327Z,99824.66
2023-04-16T23:09:52.294Z,99818.41
2023-04-16T23:14:55.295Z,99822.81
2023-04-16T23:19:58.366Z,99812.09
2023-04-16T23:25:01.440Z,99798.72
2023-04-16T23:30:05.876Z,99796.88
2023-04-16T23:35:11.140Z,99800.34
2023-04-16T23:40:14.261Z,99796.41
2023-04-16T23:45:17.212Z,99797.41
2023-04-16T23:50:20.163Z,99789.00
2023-04-16T23:55:23.358Z,99781.16
